Time;durP1;ratioP1;P1;durP2;ratioP2;P2;SDS_P1;SDS_P2;PMS_P1;PMS_P2;Temp;Humidity;BMP_temperature;BMP_pressure;BME280_temperature;BME280_humidity;BME280_pressure;Samples;Min_cycle;Max_cycle;Signal;HPM_P1;HPM_P2
2023/03/04 00:00:33;;;;;;;;;;;5.80;99.90;;;;;;5077504;28;19924;-82
2023/03/04 00:02:59;;;;;;;;;;;5.80;99.90;;;;;;5078546;28;19955;-82
2023/03/04 00:05:24;;;;;;;;;;;5.80;99.90;;;;;;5077405;28;19938;-82
2023/03/04 00:07:50;;;;;;;;;;;5.80;99.90;;;;;;5061542;28;19956;-82
2023/03/04 00:10:15;;;;;;;;;;;5.80;99.90;;;;;;5066500;28;19924;-82
2023/03/04 00:12:41;;;;;;;;;;;5.80;99.90;;;;;;5076243;28;19924;-82
2023/03/04 00:15:07;;;;;;;;;;;5.80;99.90;;;;;;5062137;28;19924;-82
2023/03/04 00:17:32;;;;;;;;;;;5.80;99.90;;;;;;5076979;28;19924;-81
2023/03/04 00:19:58;;;;;;;;;;;5.80;99.90;;;;;;5062155;28;19931;-82
2023/03/04 00:22:23;;;;;;;;;;;5.80;99.90;;;;;;5059273;28;19954;-82
2023/03/04 00:24:49;;;;;;;;;;;5.80;99.90;;;;;;5068081;28;19924;-82
2023/03/04 00:27:15;;;;;;;;;;;5.80;99.90;;;;;;5096886;28;19979;-81
2023/03/04 00:29:41;;;;;;;;;;;5.80;99.90;;;;;;5098427;28;19924;-82
2023/03/04 00:32:06;;;;;;;;;;;5.80;99.90;;;;;;5066240;28;20011;-81
2023/03/04 00:34:32;;;;;;;;;;;5.80;99.90;;;;;;5069166;28;19924;-82
2023/03/04 00:37:00;;;;;;;;;;;5.80;99.90;;;;;;5082833;28;20492;-82
2023/03/04 00:39:29;;;;;;;;;;;5.80;99.90;;;;;;5081502;28;19928;-82
2023/03/04 00:41:54;;;;;;;;;;;5.70;99.90;;;;;;5082656;28;19928;-83
2023/03/04 00:44:20;;;;;;;;;;;5.70;99.90;;;;;;5097957;28;19924;-81
2023/03/04 00:46:45;;;;;;;;;;;5.70;99.90;;;;;;5064557;28;19967;-81
2023/03/04 00:49:11;;;;;;;;;;;5.70;99.90;;;;;;5099379;28;19930;-81
2023/03/04 00:51:37;;;;;;;;;;;5.80;99.90;;;;;;5064354;28;19928;-82
2023/03/04 00:54:02;;;;;;;;;;;5.70;99.90;;;;;;5064899;28;20446;-82
2023/03/04 00:56:28;;;;;;;;;;;5.80;99.90;;;;;;5064059;28;19946;-82
2023/03/04 00:58:53;;;;;;;;;;;5.80;99.90;;;;;;5065795;28;19935;-82
2023/03/04 01:01:19;;;;;;;;;;;5.80;99.90;;;;;;5081472;28;19925;-81
2023/03/04 01:03:45;;;;;;;;;;;5.80;99.90;;;;;;5098049;28;20401;-82
2023/03/04 01:06:11;;;;;;;;;;;5.80;99.90;;;;;;5081111;28;20027;-81
2023/03/04 01:08:37;;;;;;;;;;;5.70;99.90;;;;;;5066133;28;19931;-81
2023/03/04 01:11:02;;;;;;;;;;;5.70;99.90;;;;;;5084521;28;19928;-81
2023/03/04 01:13:28;;;;;;;;;;;5.80;99.90;;;;;;5097442;28;19931;-82
2023/03/04 01:15:54;;;;;;;;;;;5.70;99.90;;;;;;5063981;28;20392;-82
2023/03/04 01:18:20;;;;;;;;;;;5.70;99.90;;;;;;5064272;28;19924;-81
2023/03/04 01:20:46;;;;;;;;;;;5.70;99.90;;;;;;5081370;28;20006;-82
2023/03/04 01:23:11;;;;;;;;;;;5.70;99.90;;;;;;5064979;28;19963;-82
2023/03/04 01:25:37;;;;;;;;;;;5.70;99.90;;;;;;5077517;28;19924;-82
2023/03/04 01:28:02;;;;;;;;;;;5.80;99.90;;;;;;5082176;28;19973;-81
2023/03/04 01:30:28;;;;;;;;;;;5.80;99.90;;;;;;5080206;28;19924;-81
2023/03/04 01:32:53;;;;;;;;;;;5.70;99.90;;;;;;5076558;28;19950;-81
2023/03/04 01:35:19;;;;;;;;;;;5.70;99.90;;;;;;5063772;28;19928;-81
2023/03/04 01:37:45;;;;;;;;;;;5.70;99.90;;;;;;5094023;28;20475;-82
2023/03/04 01:40:11;;;;;;;;;;;5.70;99.90;;;;;;5064610;28;19934;-82
2023/03/04 01:42:37;;;;;;;;;;;5.70;99.90;;;;;;5080123;28;19975;-83
2023/03/04 01:45:04;;;;;;;;;;;5.70;99.90;;;;;;5098793;28;19928;-82
2023/03/04 01:47:31;;;;;;;;;;;5.70;99.90;;;;;;5068898;28;20513;-82
2023/03/04 01:49:57;;;;;;;;;;;5.70;99.90;;;;;;5081320;28;19924;-82
2023/03/04 01:52:23;;;;;;;;;;;5.70;99.90;;;;;;5096745;28;19967;-81
2023/03/04 01:54:49;;;;;;;;;;;5.70;99.90;;;;;;5080268;28;19959;-82
2023/03/04 01:57:19;;;;;;;;;;;5.70;99.90;;;;;;5081232;28;19928;-81
2023/03/04 01:59:45;;;;;;;;;;;5.70;99.90;;;;;;5063669;28;19933;-81
2023/03/04 02:02:10;;;;;;;;;;;5.60;99.90;;;;;;5064505;28;19970;-82
2023/03/04 02:04:36;;;;;;;;;;;5.60;99.90;;;;;;5067458;28;19932;-82
2023/03/04 02:07:03;;;;;;;;;;;5.70;99.90;;;;;;5080963;28;19924;-82
2023/03/04 02:09:29;;;;;;;;;;;5.70;99.90;;;;;;5058798;28;19925;-82
2023/03/04 02:11:55;;;;;;;;;;;5.70;99.90;;;;;;5097764;28;19959;-82
2023/03/04 02:14:21;;;;;;;;;;;5.70;99.90;;;;;;5066229;28;19930;-82
2023/03/04 02:16:47;;;;;;;;;;;5.70;99.90;;;;;;5096038;28;19928;-82
2023/03/04 02:19:18;;;;;;;;;;;5.70;99.90;;;;;;5097632;28;19924;-81
2023/03/04 02:21:43;;;;;;;;;;;5.70;99.90;;;;;;5073588;28;19924;-82
2023/03/04 02:24:21;;;;;;;;;;;5.70;99.90;;;;;;5053365;28;19950;-81
2023/03/04 02:26:47;;;;;;;;;;;5.70;99.90;;;;;;5078331;28;19959;-81
2023/03/04 02:29:14;;;;;;;;;;;5.60;99.90;;;;;;5080087;28;19948;-82
2023/03/04 02:31:41;;;;;;;;;;;5.70;99.90;;;;;;5062740;28;19928;-81
2023/03/04 02:34:12;;;;;;;;;;;5.60;99.90;;;;;;5068467;28;20284;-82
2023/03/04 02:36:38;;;;;;;;;;;5.60;99.90;;;;;;5064873;28;19931;-82
2023/03/04 02:39:06;;;;;;;;;;;5.60;99.90;;;;;;5078470;28;19928;-82
2023/03/04 02:41:32;;;;;;;;;;;5.60;99.90;;;;;;5097009;28;19924;-81
2023/03/04 02:43:58;;;;;;;;;;;5.60;99.90;;;;;;5062328;28;19928;-81
2023/03/04 02:46:23;;;;;;;;;;;5.60;99.90;;;;;;5078724;28;19924;-82
2023/03/04 02:48:50;;;;;;;;;;;5.60;99.90;;;;;;5082356;28;20053;-81
2023/03/04 02:51:15;;;;;;;;;;;5.60;99.90;;;;;;5077800;28;19924;-81
2023/03/04 02:53:41;;;;;;;;;;;5.60;99.90;;;;;;5097133;28;19928;-81
2023/03/04 02:56:07;;;;;;;;;;;5.60;99.90;;;;;;5077335;28;20014;-82
2023/03/04 02:58:33;;;;;;;;;;;5.50;99.90;;;;;;5078956;28;19950;-81
2023/03/04 03:00:58;;;;;;;;;;;5.60;99.90;;;;;;5072521;28;20389;-81
2023/03/04 03:03:24;;;;;;;;;;;5.60;99.90;;;;;;5105101;28;19928;-81
2023/03/04 03:05:50;;;;;;;;;;;5.50;99.90;;;;;;5079271;28;19967;-81
2023/03/04 03:08:15;;;;;;;;;;;5.50;99.90;;;;;;5107782;28;19935;-81
2023/03/04 03:10:41;;;;;;;;;;;5.50;99.90;;;;;;5092388;28;19931;-81
2023/03/04 03:13:06;;;;;;;;;;;5.50;99.90;;;;;;5061349;28;19931;-81
2023/03/04 03:15:32;;;;;;;;;;;5.50;99.90;;;;;;5079833;28;19928;-81
2023/03/04 03:17:58;;;;;;;;;;;5.50;99.90;;;;;;5076815;28;19963;-81
2023/03/04 03:20:23;;;;;;;;;;;5.50;99.90;;;;;;5079933;28;19979;-81
2023/03/04 03:22:49;;;;;;;;;;;5.50;99.90;;;;;;5064710;28;19928;-81
2023/03/04 03:25:15;;;;;;;;;;;5.50;99.90;;;;;;5078268;28;19935;-81
2023/03/04 03:27:40;;;;;;;;;;;5.50;99.90;;;;;;5078368;28;19931;-81
2023/03/04 03:30:07;;;;;;;;;;;5.40;99.90;;;;;;5078063;28;19928;-81
2023/03/04 03:32:32;;;;;;;;;;;5.50;99.90;;;;;;5079855;28;19928;-81
2023/03/04 03:34:58;;;;;;;;;;;5.40;99.90;;;;;;5077495;28;20019;-81
2023/03/04 03:37:23;;;;;;;;;;;5.40;99.90;;;;;;5076768;28;20086;-81
2023/03/04 03:39:49;;;;;;;;;;;5.40;99.90;;;;;;5098877;28;19951;-81
2023/03/04 03:42:15;;;;;;;;;;;5.40;99.90;;;;;;5078527;28;19975;-81
2023/03/04 03:44:40;;;;;;;;;;;5.40;99.90;;;;;;5062682;28;19967;-81
2023/03/04 03:47:06;;;;;;;;;;;5.40;99.90;;;;;;5060977;28;19978;-81
2023/03/04 03:49:32;;;;;;;;;;;5.40;99.90;;;;;;5073185;28;20137;-81
2023/03/04 03:51:57;;;;;;;;;;;5.40;99.90;;;;;;5072850;28;19929;-81
2023/03/04 03:54:23;;;;;;;;;;;5.40;99.90;;;;;;5102750;28;19971;-81
2023/03/04 03:56:48;;;;;;;;;;;5.40;99.90;;;;;;5061395;28;19977;-81
2023/03/04 03:59:14;;;;;;;;;;;5.40;99.90;;;;;;5060837;28;20448;-80
2023/03/04 04:01:40;;;;;;;;;;;5.40;99.90;;;;;;5055860;28;19935;-81
2023/03/04 04:04:05;;;;;;;;;;;5.40;99.90;;;;;;5077890;28;19931;-81
2023/03/04 04:06:31;;;;;;;;;;;5.40;99.90;;;;;;5062653;28;19923;-81
2023/03/04 04:08:56;;;;;;;;;;;5.40;99.90;;;;;;5060809;28;19968;-81
2023/03/04 04:11:22;;;;;;;;;;;5.40;99.90;;;;;;5060451;28;20328;-81
2023/03/04 04:13:48;;;;;;;;;;;5.40;99.90;;;;;;5073189;28;19924;-81
2023/03/04 04:16:13;;;;;;;;;;;5.40;99.90;;;;;;5078591;28;19928;-81
2023/03/04 04:18:39;;;;;;;;;;;5.40;99.90;;;;;;5061656;28;19939;-82
2023/03/04 04:21:04;;;;;;;;;;;5.40;99.90;;;;;;5059854;28;19964;-81
2023/03/04 04:23:30;;;;;;;;;;;5.40;99.90;;;;;;5078859;28;19931;-81
2023/03/04 04:25:56;;;;;;;;;;;5.40;99.90;;;;;;5076766;28;20038;-82
2023/03/04 04:28:22;;;;;;;;;;;5.40;99.90;;;;;;5078234;28;19924;-81
2023/03/04 04:30:47;;;;;;;;;;;5.40;99.90;;;;;;5055758;28;19924;-81
2023/03/04 04:33:13;;;;;;;;;;;5.40;99.90;;;;;;5058611;28;19924;-82
2023/03/04 04:35:38;;;;;;;;;;;5.40;99.90;;;;;;5101762;28;19924;-81
2023/03/04 04:38:05;;;;;;;;;;;5.40;99.90;;;;;;5077909;28;19932;-81
2023/03/04 04:40:30;;;;;;;;;;;5.40;99.90;;;;;;5076336;28;19969;-81
2023/03/04 04:42:56;;;;;;;;;;;5.40;99.90;;;;;;5050511;28;19925;-82
2023/03/04 04:45:23;;;;;;;;;;;5.30;99.90;;;;;;5078508;28;19970;-82
2023/03/04 04:47:49;;;;;;;;;;;5.30;99.90;;;;;;5127831;28;20028;-81
2023/03/04 04:50:15;;;;;;;;;;;5.30;99.90;;;;;;5061817;28;19991;-82
2023/03/04 04:52:41;;;;;;;;;;;5.30;99.90;;;;;;5071565;28;19924;-81
2023/03/04 04:55:06;;;;;;;;;;;5.40;99.90;;;;;;5077494;28;19928;-81
2023/03/04 04:57:32;;;;;;;;;;;5.30;99.90;;;;;;5062289;28;19925;-81
2023/03/04 04:59:58;;;;;;;;;;;5.30;99.90;;;;;;5093753;28;20339;-81
2023/03/04 05:02:23;;;;;;;;;;;5.30;99.90;;;;;;5073470;28;19931;-81
2023/03/04 05:04:49;;;;;;;;;;;5.30;99.90;;;;;;5077148;28;19924;-81
2023/03/04 05:07:14;;;;;;;;;;;5.30;99.90;;;;;;5061656;28;19928;-81
2023/03/04 05:09:40;;;;;;;;;;;5.30;99.90;;;;;;5128382;28;19924;-81
2023/03/04 05:12:05;;;;;;;;;;;5.30;99.90;;;;;;5059056;28;19932;-81
2023/03/04 05:14:31;;;;;;;;;;;5.20;99.90;;;;;;5081920;28;19971;-81
2023/03/04 05:16:57;;;;;;;;;;;5.30;99.90;;;;;;5080233;28;20029;-81
2023/03/04 05:19:22;;;;;;;;;;;5.20;99.90;;;;;;5084886;28;19963;-81
2023/03/04 05:21:48;;;;;;;;;;;5.20;99.90;;;;;;5063339;28;19931;-81
2023/03/04 05:24:13;;;;;;;;;;;5.20;99.90;;;;;;5093147;28;19924;-81
2023/03/04 05:26:39;;;;;;;;;;;5.10;99.90;;;;;;5065981;28;20015;-81
2023/03/04 05:29:05;;;;;;;;;;;5.20;99.90;;;;;;5065033;28;19986;-82
2023/03/04 05:31:30;;;;;;;;;;;5.10;99.90;;;;;;5097959;28;19924;-81
2023/03/04 05:33:56;;;;;;;;;;;5.10;99.90;;;;;;5101687;28;19925;-82
2023/03/04 05:36:21;;;;;;;;;;;5.10;99.90;;;;;;5094757;28;19924;-81
2023/03/04 05:38:47;;;;;;;;;;;5.10;99.90;;;;;;5080146;28;19953;-81
2023/03/04 05:41:13;;;;;;;;;;;5.00;99.90;;;;;;5064267;28;19973;-81
2023/03/04 05:43:41;;;;;;;;;;;5.10;99.90;;;;;;5077300;28;19924;-82
2023/03/04 05:46:07;;;;;;;;;;;5.10;99.90;;;;;;5081799;28;20430;-82
2023/03/04 05:48:33;;;;;;;;;;;5.10;99.90;;;;;;5064306;28;19973;-81
2023/03/04 05:50:59;;;;;;;;;;;5.10;99.90;;;;;;5080535;28;19929;-82
2023/03/04 05:53:25;;;;;;;;;;;5.00;99.90;;;;;;5081148;28;19980;-82
2023/03/04 05:55:51;;;;;;;;;;;5.00;99.90;;;;;;5069491;28;19985;-81
2023/03/04 05:58:16;;;;;;;;;;;5.00;99.90;;;;;;5117880;27;19924;-82
2023/03/04 06:00:42;;;;;;;;;;;4.90;99.90;;;;;;5096574;28;20358;-81
2023/03/04 06:03:16;;;;;;;;;;;4.80;99.90;;;;;;5081094;28;19932;-81
2023/03/04 06:05:42;;;;;;;;;;;4.80;99.90;;;;;;5078743;28;19924;-82
2023/03/04 06:08:07;;;;;;;;;;;4.80;99.90;;;;;;5079416;28;19988;-81
2023/03/04 06:10:33;;;;;;;;;;;4.80;99.90;;;;;;5080994;28;19928;-81
2023/03/04 06:12:58;;;;;;;;;;;4.80;99.90;;;;;;5062301;28;19946;-81
2023/03/04 06:15:24;;;;;;;;;;;4.80;99.90;;;;;;5061188;28;20023;-81
2023/03/04 06:17:49;;;;;;;;;;;4.90;99.90;;;;;;5079454;28;19989;-82
2023/03/04 06:20:15;;;;;;;;;;;4.90;99.90;;;;;;5080988;28;19924;-82
2023/03/04 06:22:41;;;;;;;;;;;4.90;99.90;;;;;;5065502;28;19925;-81
2023/03/04 06:25:06;;;;;;;;;;;4.90;99.90;;;;;;5062052;28;19924;-81
2023/03/04 06:27:32;;;;;;;;;;;4.80;99.90;;;;;;5079619;28;20326;-82
2023/03/04 06:29:57;;;;;;;;;;;4.90;99.90;;;;;;5062501;28;19950;-82
2023/03/04 06:32:23;;;;;;;;;;;4.90;99.90;;;;;;5080668;28;19924;-81
2023/03/04 06:34:49;;;;;;;;;;;4.90;99.90;;;;;;5095734;28;19924;-81
2023/03/04 06:37:14;;;;;;;;;;;4.90;99.90;;;;;;5095505;28;19988;-82
2023/03/04 06:39:40;;;;;;;;;;;4.90;99.90;;;;;;5079338;28;19935;-81
2023/03/04 06:42:06;;;;;;;;;;;5.00;99.90;;;;;;5080069;28;19924;-81
2023/03/04 06:44:31;;;;;;;;;;;5.00;99.90;;;;;;5063710;28;19987;-81
2023/03/04 06:46:57;;;;;;;;;;;5.00;99.90;;;;;;5057330;28;19982;-82
2023/03/04 06:49:22;;;;;;;;;;;5.10;99.90;;;;;;5105139;28;19977;-81
2023/03/04 06:51:48;;;;;;;;;;;5.10;99.90;;;;;;5078659;28;19924;-81
2023/03/04 06:54:13;;;;;;;;;;;5.10;99.90;;;;;;5063704;28;19935;-81
2023/03/04 06:56:39;;;;;;;;;;;5.20;99.90;;;;;;5093201;28;19928;-81
2023/03/04 06:59:05;;;;;;;;;;;5.10;99.90;;;;;;5079452;28;19939;-82
2023/03/04 07:01:30;;;;;;;;;;;5.20;99.90;;;;;;5061831;28;19970;-81
2023/03/04 07:03:56;;;;;;;;;;;5.20;99.90;;;;;;5054916;28;19931;-82
2023/03/04 07:06:23;;;;;;;;;;;5.20;99.90;;;;;;5097028;28;20375;-81
2023/03/04 07:08:49;;;;;;;;;;;5.20;99.90;;;;;;5120016;27;19932;-82
2023/03/04 07:11:15;;;;;;;;;;;5.30;99.90;;;;;;5079551;28;19979;-81
2023/03/04 07:13:40;;;;;;;;;;;5.30;99.90;;;;;;5076540;28;20371;-82
2023/03/04 07:16:07;;;;;;;;;;;5.30;99.90;;;;;;5079407;28;19924;-82
2023/03/04 07:18:32;;;;;;;;;;;5.30;99.90;;;;;;5079384;28;19939;-81
2023/03/04 07:20:58;;;;;;;;;;;5.30;99.90;;;;;;5060626;28;19924;-82
2023/03/04 07:23:23;;;;;;;;;;;5.30;99.90;;;;;;5070948;28;19928;-82
2023/03/04 07:25:49;;;;;;;;;;;5.30;99.90;;;;;;5060549;28;19928;-82
2023/03/04 07:28:15;;;;;;;;;;;5.40;99.90;;;;;;5079509;28;19989;-82
2023/03/04 07:30:41;;;;;;;;;;;5.40;99.90;;;;;;5055509;28;19930;-82
2023/03/04 07:33:06;;;;;;;;;;;5.40;99.90;;;;;;5062240;28;20371;-82
2023/03/04 07:35:32;;;;;;;;;;;5.50;99.90;;;;;;5061851;28;19973;-82
2023/03/04 07:37:57;;;;;;;;;;;5.60;99.90;;;;;;5078561;28;20528;-82
2023/03/04 07:40:24;;;;;;;;;;;5.80;99.90;;;;;;5074436;28;20281;-82
2023/03/04 07:42:50;;;;;;;;;;;6.10;99.90;;;;;;5067549;28;19980;-82
2023/03/04 07:45:16;;;;;;;;;;;6.50;99.90;;;;;;5112288;28;19924;-82
2023/03/04 07:47:41;;;;;;;;;;;6.90;99.90;;;;;;5070331;28;19931;-82
2023/03/04 07:50:08;;;;;;;;;;;7.00;99.90;;;;;;5060804;28;19924;-82
2023/03/04 07:52:36;;;;;;;;;;;7.10;99.90;;;;;;5078406;28;19954;-83
2023/03/04 07:55:02;;;;;;;;;;;7.00;99.90;;;;;;5073730;28;19924;-82
2023/03/04 07:57:27;;;;;;;;;;;6.90;99.90;;;;;;5095903;28;20011;-82
2023/03/04 07:59:53;;;;;;;;;;;6.80;99.90;;;;;;5061277;28;19928;-82
2023/03/04 08:02:18;;;;;;;;;;;6.70;99.90;;;;;;5079210;28;19939;-82
2023/03/04 08:04:44;;;;;;;;;;;6.70;99.90;;;;;;5077274;28;19987;-82
2023/03/04 08:07:10;;;;;;;;;;;6.70;99.90;;;;;;5062160;28;19954;-82
2023/03/04 08:09:35;;;;;;;;;;;6.60;99.90;;;;;;5094686;28;19924;-82
2023/03/04 08:12:01;;;;;;;;;;;6.50;99.90;;;;;;5077489;28;19928;-83
2023/03/04 08:14:27;;;;;;;;;;;6.40;99.90;;;;;;5061839;28;19924;-82
2023/03/04 08:16:52;;;;;;;;;;;6.50;99.90;;;;;;5077253;28;19928;-83
2023/03/04 08:19:18;;;;;;;;;;;6.50;99.90;;;;;;5078853;28;20279;-83
2023/03/04 08:21:43;;;;;;;;;;;6.40;99.90;;;;;;5055013;28;19997;-83
2023/03/04 08:24:09;;;;;;;;;;;6.40;99.90;;;;;;5056161;28;19936;-83
2023/03/04 08:26:45;;;;;;;;;;;6.40;99.90;;;;;;5087422;28;19928;-83
2023/03/04 08:29:13;;;;;;;;;;;6.40;99.90;;;;;;5077418;28;19931;-83
2023/03/04 08:31:39;;;;;;;;;;;6.30;99.90;;;;;;5095777;28;20286;-83
2023/03/04 08:34:06;;;;;;;;;;;6.30;99.90;;;;;;5077022;28;19963;-83
2023/03/04 08:36:32;;;;;;;;;;;6.40;99.90;;;;;;5074478;28;19925;-83
2023/03/04 08:38:57;;;;;;;;;;;6.40;99.90;;;;;;5068953;28;19986;-83
2023/03/04 08:41:25;;;;;;;;;;;6.50;99.90;;;;;;5078755;28;19966;-83
2023/03/04 08:43:50;;;;;;;;;;;6.60;99.90;;;;;;5060727;28;19924;-83
2023/03/04 08:46:16;;;;;;;;;;;6.80;99.90;;;;;;5060928;28;19924;-83
2023/03/04 08:48:41;;;;;;;;;;;6.80;99.90;;;;;;5063308;28;20014;-83
2023/03/04 08:51:14;;;;;;;;;;;6.90;99.90;;;;;;5097589;28;19947;-83
2023/03/04 08:53:39;;;;;;;;;;;6.90;99.90;;;;;;5099313;28;20462;-83
2023/03/04 08:56:05;;;;;;;;;;;7.10;99.90;;;;;;5080386;28;19938;-83
2023/03/04 08:58:31;;;;;;;;;;;7.10;99.90;;;;;;5068083;28;19991;-83
2023/03/04 09:00:57;;;;;;;;;;;7.10;99.90;;;;;;5063974;28;19928;-83
2023/03/04 09:03:23;;;;;;;;;;;7.10;99.90;;;;;;5078424;28;19931;-82
2023/03/04 09:05:50;;;;;;;;;;;7.10;99.90;;;;;;5064875;28;20408;-82
2023/03/04 09:08:16;;;;;;;;;;;7.10;99.90;;;;;;5097281;28;19924;-83
2023/03/04 09:10:43;;;;;;;;;;;7.20;99.90;;;;;;5065189;28;19924;-83
2023/03/04 09:13:10;;;;;;;;;;;7.20;99.90;;;;;;5097057;28;20061;-81
2023/03/04 09:15:36;;;;;;;;;;;7.20;99.90;;;;;;5081781;28;19928;-83
2023/03/04 09:18:03;;;;;;;;;;;7.20;99.90;;;;;;5082284;28;19924;-82
2023/03/04 09:20:29;;;;;;;;;;;7.20;99.90;;;;;;5067941;28;19968;-82
2023/03/04 09:22:54;;;;;;;;;;;7.20;99.90;;;;;;5077901;28;20418;-83
2023/03/04 09:25:20;;;;;;;;;;;7.20;99.90;;;;;;5095161;28;19949;-83
2023/03/04 09:27:45;;;;;;;;;;;7.20;99.90;;;;;;5059644;28;20009;-84
2023/03/04 09:30:11;;;;;;;;;;;7.20;99.90;;;;;;5077741;28;19969;-83
2023/03/04 09:32:37;;;;;;;;;;;7.20;99.90;;;;;;5073367;28;20300;-82
2023/03/04 09:35:02;;;;;;;;;;;7.10;99.90;;;;;;5074469;28;19925;-84
2023/03/04 09:37:28;;;;;;;;;;;7.10;99.90;;;;;;5106539;28;19924;-80
2023/03/04 09:39:54;;;;;;;;;;;7.00;99.90;;;;;;5080684;28;19956;-80
2023/03/04 09:42:43;;;;;;;;;;;6.90;99.90;;;;;;5072388;28;19996;-80
2023/03/04 09:45:12;;;;;;;;;;;7.00;99.90;;;;;;5096282;28;19931;-80
2023/03/04 09:47:38;;;;;;;;;;;7.00;99.90;;;;;;5070180;28;19928;-82
2023/03/04 09:50:06;;;;;;;;;;;7.00;99.90;;;;;;5081378;28;19939;-80
2023/03/04 09:52:40;;;;;;;;;;;7.00;99.90;;;;;;5096266;28;19930;-79
2023/03/04 09:55:11;;;;;;;;;;;7.00;99.90;;;;;;5096772;28;20440;-80
2023/03/04 09:57:40;;;;;;;;;;;7.00;99.90;;;;;;5073476;28;19935;-80
2023/03/04 10:00:19;;;;;;;;;;;7.00;99.90;;;;;;5114148;27;19928;-79
2023/03/04 10:02:51;;;;;;;;;;;7.10;99.90;;;;;;5096779;28;19928;-80
2023/03/04 10:05:18;;;;;;;;;;;7.20;99.90;;;;;;5084739;28;19924;-81
2023/03/04 10:07:47;;;;;;;;;;;7.30;99.90;;;;;;5123326;27;19924;-81
2023/03/04 10:10:15;;;;;;;;;;;7.30;99.90;;;;;;5091589;28;19932;-79
2023/03/04 10:12:42;;;;;;;;;;;7.40;99.90;;;;;;5087790;28;19924;-83
2023/03/04 10:15:17;;;;;;;;;;;7.40;99.90;;;;;;5095428;28;19928;-81
2023/03/04 10:17:45;;;;;;;;;;;7.30;99.90;;;;;;5082341;28;19950;-82
2023/03/04 10:20:15;;;;;;;;;;;7.30;99.90;;;;;;5070175;28;19963;-81
2023/03/04 10:22:42;;;;;;;;;;;7.30;99.90;;;;;;5110050;28;19938;-81
2023/03/04 10:25:14;;;;;;;;;;;7.30;99.90;;;;;;5067759;28;19924;-82
2023/03/04 10:27:40;;;;;;;;;;;7.30;99.90;;;;;;5093896;28;19924;-82
2023/03/04 10:30:12;;;;;;;;;;;7.30;99.90;;;;;;5070088;28;19924;-82
2023/03/04 10:32:44;;;;;;;;;;;7.30;99.90;;;;;;5072165;28;19931;-80
2023/03/04 10:35:11;;;;;;;;;;;7.30;99.90;;;;;;5097708;28;19929;-82
2023/03/04 10:37:44;;;;;;;;;;;7.20;99.90;;;;;;5096092;28;19935;-81
2023/03/04 10:40:20;;;;;;;;;;;7.20;99.90;;;;;;5107468;28;20038;-81
2023/03/04 10:42:47;;;;;;;;;;;7.10;99.90;;;;;;5077027;28;19924;-82
2023/03/04 10:45:24;;;;;;;;;;;7.10;99.90;;;;;;5075716;28;19924;-82
2023/03/04 10:47:56;;;;;;;;;;;6.90;99.90;;;;;;5104478;28;19924;-82
2023/03/04 10:50:26;;;;;;;;;;;6.90;99.90;;;;;;5079703;28;19977;-82
2023/03/04 10:52:54;;;;;;;;;;;6.80;99.90;;;;;;5079956;28;19924;-81
2023/03/04 10:55:22;;;;;;;;;;;6.80;99.90;;;;;;5078168;28;20045;-82
2023/03/04 10:57:49;;;;;;;;;;;6.80;99.90;;;;;;5080183;28;20011;-81
2023/03/04 11:00:25;;;;;;;;;;;6.90;99.90;;;;;;5095050;28;19928;-82
2023/03/04 11:02:50;;;;;;;;;;;7.00;99.90;;;;;;5080009;28;19924;-81
2023/03/04 11:05:16;;;;;;;;;;;7.10;99.90;;;;;;5075463;28;20028;-82
2023/03/04 11:07:43;;;;;;;;;;;7.30;99.90;;;;;;5077893;28;19932;-82
2023/03/04 11:10:12;;;;;;;;;;;7.30;99.90;;;;;;5079348;28;20423;-81
2023/03/04 11:12:38;;;;;;;;;;;7.30;99.90;;;;;;5069723;28;19924;-82
2023/03/04 11:15:16;;;;;;;;;;;7.30;99.90;;;;;;5061368;28;19935;-81
2023/03/04 11:17:44;;;;;;;;;;;7.10;99.90;;;;;;5118436;27;19931;-83
2023/03/04 11:20:24;;;;;;;;;;;7.00;99.90;;;;;;5105695;28;20025;-82
2023/03/04 11:22:50;;;;;;;;;;;7.00;99.90;;;;;;5065211;28;19936;-82
2023/03/04 11:25:26;;;;;;;;;;;7.10;99.90;;;;;;5061454;28;19950;-83
2023/03/04 11:27:54;;;;;;;;;;;7.00;99.90;;;;;;5096305;28;19924;-82
2023/03/04 11:30:33;;;;;;;;;;;7.20;99.90;;;;;;5078216;28;19927;-82
2023/03/04 11:33:10;;;;;;;;;;;7.30;99.90;;;;;;5079339;28;19924;-82
2023/03/04 11:36:12;;;;;;;;;;;7.40;99.90;;;;;;5095986;28;19924;-81
2023/03/04 11:38:42;;;;;;;;;;;7.70;99.90;;;;;;5023581;28;19925;-82
2023/03/04 11:41:27;;;;;;;;;;;8.00;99.90;;;;;;5055375;28;19924;-83
2023/03/04 11:43:52;;;;;;;;;;;8.00;99.90;;;;;;5065722;28;19998;-82
2023/03/04 11:46:35;;;;;;;;;;;8.00;99.90;;;;;;5064899;28;19961;-82
2023/03/04 11:49:07;;;;;;;;;;;7.90;99.90;;;;;;5059305;28;19939;-82
2023/03/04 11:51:48;;;;;;;;;;;7.80;99.90;;;;;;5089217;28;19989;-82
2023/03/04 11:54:16;;;;;;;;;;;7.80;99.90;;;;;;5070240;28;19928;-81
2023/03/04 11:56:43;;;;;;;;;;;7.70;99.90;;;;;;5091066;28;19931;-82
2023/03/04 11:59:27;;;;;;;;;;;7.60;99.90;;;;;;5062163;28;19955;-81
2023/03/04 12:02:08;;;;;;;;;;;7.70;99.90;;;;;;5079399;28;19967;-82
2023/03/04 12:04:36;;;;;;;;;;;7.70;99.90;;;;;;5077657;28;19935;-81
2023/03/04 12:07:05;;;;;;;;;;;7.70;99.90;;;;;;5078953;28;20344;-83
2023/03/04 12:09:56;;;;;;;;;;;7.70;99.90;;;;;;5077675;28;19963;-81
2023/03/04 12:12:21;;;;;;;;;;;7.70;99.90;;;;;;5077892;28;19924;-82
2023/03/04 12:14:47;;;;;;;;;;;7.90;99.90;;;;;;5079247;28;19967;-82
2023/03/04 12:17:32;;;;;;;;;;;8.20;99.90;;;;;;5077074;28;19971;-82
2023/03/04 12:20:00;;;;;;;;;;;8.40;99.90;;;;;;5079416;28;20455;-82
2023/03/04 12:22:26;;;;;;;;;;;8.40;99.90;;;;;;5082773;28;19924;-81
2023/03/04 12:24:55;;;;;;;;;;;8.30;99.90;;;;;;5081648;28;19939;-83
2023/03/04 12:27:43;;;;;;;;;;;8.10;99.90;;;;;;5083057;28;19923;-82
2023/03/04 12:30:18;;;;;;;;;;;7.90;99.90;;;;;;5080945;28;19927;-82
2023/03/04 12:33:02;;;;;;;;;;;7.80;99.90;;;;;;5083130;28;19931;-82
2023/03/04 12:35:40;;;;;;;;;;;7.70;99.90;;;;;;5082147;28;19924;-82
2023/03/04 12:38:17;;;;;;;;;;;7.70;99.90;;;;;;5098140;28;19925;-82
2023/03/04 12:40:42;;;;;;;;;;;7.60;99.90;;;;;;5080572;28;19935;-73
2023/03/04 12:43:36;;;;;;;;;;;7.60;99.90;;;;;;5075539;28;19924;-73
2023/03/04 12:46:11;;;;;;;;;;;7.70;99.90;;;;;;5095971;28;19930;-73
2023/03/04 12:48:42;;;;;;;;;;;7.80;99.90;;;;;;5079482;28;19943;-72
2023/03/04 12:51:25;;;;;;;;;;;8.00;99.90;;;;;;5087630;28;19939;-73
2023/03/04 12:54:10;;;;;;;;;;;8.20;99.90;;;;;;5067697;28;19928;-73
2023/03/04 12:56:35;;;;;;;;;;;8.20;99.90;;;;;;5078117;28;20015;-73
2023/03/04 12:59:01;;;;;;;;;;;8.30;99.90;;;;;;5075124;28;19939;-73
2023/03/04 13:01:40;;;;;;;;;;;8.40;99.90;;;;;;5092048;28;19939;-73
2023/03/04 13:04:41;;;;;;;;;;;8.50;99.90;;;;;;5097011;28;20407;-73
2023/03/04 13:07:11;;;;;;;;;;;8.40;99.90;;;;;;5040880;28;19925;-73
2023/03/04 13:09:53;;;;;;;;;;;8.30;99.90;;;;;;5063488;28;19924;-72
2023/03/04 13:12:20;;;;;;;;;;;8.10;99.90;;;;;;5078631;28;19929;-73
2023/03/04 13:15:04;;;;;;;;;;;7.90;99.90;;;;;;5081571;28;19970;-73
2023/03/04 13:17:36;;;;;;;;;;;7.70;99.90;;;;;;5078866;28;19928;-82
2023/03/04 13:20:18;;;;;;;;;;;7.50;99.90;;;;;;5099247;28;19925;-83
2023/03/04 13:22:59;;;;;;;;;;;7.40;99.90;;;;;;5067325;28;19924;-82
2023/03/04 13:25:29;;;;;;;;;;;7.30;99.90;;;;;;5079757;28;19932;-82
2023/03/04 13:28:01;;;;;;;;;;;7.30;99.90;;;;;;5084296;28;19928;-82
2023/03/04 13:30:27;;;;;;;;;;;7.30;99.90;;;;;;5079852;28;19925;-82
2023/03/04 13:32:52;;;;;;;;;;;7.30;99.90;;;;;;5081392;28;19980;-82
2023/03/04 13:35:37;;;;;;;;;;;7.40;99.90;;;;;;5064135;28;19952;-82
2023/03/04 13:38:18;;;;;;;;;;;7.40;99.90;;;;;;5080268;28;19929;-82
2023/03/04 13:41:04;;;;;;;;;;;7.30;99.90;;;;;;5082071;28;19946;-83
2023/03/04 13:43:38;;;;;;;;;;;7.30;99.90;;;;;;5079555;28;19935;-82
2023/03/04 13:46:19;;;;;;;;;;;7.20;99.90;;;;;;5086047;28;20420;-82
2023/03/04 13:48:48;;;;;;;;;;;7.10;99.90;;;;;;5067382;28;20415;-82
2023/03/04 13:51:15;;;;;;;;;;;7.00;99.90;;;;;;5080212;28;20283;-82
2023/03/04 13:53:42;;;;;;;;;;;7.00;99.90;;;;;;5098134;28;19970;-82
2023/03/04 13:56:18;;;;;;;;;;;7.00;99.90;;;;;;5079138;28;19928;-82
2023/03/04 13:58:44;;;;;;;;;;;7.00;99.90;;;;;;5081130;28;19978;-82
2023/03/04 14:01:30;;;;;;;;;;;7.10;99.90;;;;;;5064176;28;19924;-82
2023/03/04 14:03:57;;;;;;;;;;;7.20;99.90;;;;;;5079518;28;20384;-82
2023/03/04 14:06:25;;;;;;;;;;;7.20;99.90;;;;;;5081346;28;20037;-81
2023/03/04 14:08:51;;;;;;;;;;;7.30;99.90;;;;;;5079349;28;19930;-82
2023/03/04 14:11:23;;;;;;;;;;;7.30;99.90;;;;;;5098284;28;19928;-82
2023/03/04 14:13:49;;;;;;;;;;;7.20;99.90;;;;;;5079957;28;19924;-82
2023/03/04 14:16:22;;;;;;;;;;;7.20;99.90;;;;;;5080525;28;19988;-83
2023/03/04 14:19:01;;;;;;;;;;;7.20;99.90;;;;;;5080672;28;19945;-82
2023/03/04 14:21:28;;;;;;;;;;;7.20;99.90;;;;;;5090649;28;19924;-82
2023/03/04 14:24:10;;;;;;;;;;;7.30;99.90;;;;;;5089661;28;20378;-82
2023/03/04 14:26:36;;;;;;;;;;;7.40;99.90;;;;;;5078888;28;19942;-82
2023/03/04 14:29:02;;;;;;;;;;;7.40;99.90;;;;;;5080585;28;19928;-82
2023/03/04 14:31:29;;;;;;;;;;;7.40;99.90;;;;;;5063884;28;19924;-82
2023/03/04 14:34:04;;;;;;;;;;;7.50;99.90;;;;;;5079126;28;20033;-82
2023/03/04 14:36:31;;;;;;;;;;;7.50;99.90;;;;;;5097400;28;19924;-82